Time;durP1;ratioP1;P1;durP2;ratioP2;P2;SDS_P1;SDS_P2;PMS_P1;PMS_P2;Temp;Humidity;BMP_temperature;BMP_pressure;BME280_temperature;BME280_humidity;BME280_pressure;Samples;Min_cycle;Max_cycle;Signal;HPM_P1;HPM_P2
2024/01/15 00:01:56;;;;;;;50.28;33.45;;;76.90;2227.20;;;;;;5087322;28;20597;-74
2024/01/15 00:04:21;;;;;;;79.25;50.28;;;76.80;2227.20;;;;;;5083911;28;20542;-75
2024/01/15 00:06:47;;;;;;;48.65;32.28;;;76.90;2227.20;;;;;;5087289;28;20207;-75
2024/01/15 00:09:13;;;;;;;73.15;41.35;;;77.10;2227.20;;;;;;5083535;28;20035;-75
2024/01/15 00:11:39;;;;;;;65.18;38.95;;;77.10;2227.20;;;;;;5085969;28;20123;-74
2024/01/15 00:14:05;;;;;;;119.28;66.95;;;77.10;2227.20;;;;;;5086355;28;20020;-75
2024/01/15 00:16:30;;;;;;;146.52;86.43;;;77.20;2227.20;;;;;;5090370;28;20020;-75
2024/01/15 00:18:56;;;;;;;126.22;72.07;;;77.20;2227.20;;;;;;5090311;28;20025;-74
2024/01/15 00:21:23;;;;;;;111.80;64.35;;;77.40;2227.20;;;;;;5090321;28;20038;-75
2024/01/15 00:23:49;;;;;;;71.55;39.92;;;77.60;2227.20;;;;;;5090184;28;20082;-75
2024/01/15 00:26:15;;;;;;;104.50;55.45;;;102.40;2227.20;;;;;;5090400;28;20020;-76
2024/01/15 00:28:41;;;;;;;61.85;32.45;;;102.60;2227.20;;;;;;5090224;28;20023;-74
2024/01/15 00:31:06;;;;;;;34.55;20.17;;;102.40;2227.20;;;;;;5090199;28;20020;-75
2024/01/15 00:33:32;;;;;;;75.38;43.33;;;77.60;2227.20;;;;;;5089265;28;20032;-73
2024/01/15 00:35:58;;;;;;;42.78;22.50;;;77.40;2227.20;;;;;;5089675;28;20089;-73
2024/01/15 00:38:24;;;;;;;103.60;53.67;;;102.40;2227.20;;;;;;5088167;28;20478;-74
2024/01/15 00:40:49;;;;;;;46.47;26.77;;;102.70;2227.20;;;;;;5089260;28;20027;-74
2024/01/15 00:43:18;;;;;;;72.45;37.33;;;103.00;2227.20;;;;;;5088818;28;20017;-74
2024/01/15 00:45:43;;;;;;;56.55;33.33;;;103.00;2227.20;;;;;;5087015;28;20056;-75
2024/01/15 00:48:09;;;;;;;58.20;34.15;;;102.60;2227.20;;;;;;5088232;28;20067;-74
2024/01/15 00:50:35;;;;;;;169.27;78.50;;;102.70;2227.20;;;;;;5076829;28;20028;-75
2024/01/15 00:53:01;;;;;;;34.63;22.05;;;103.00;2227.20;;;;;;5077398;28;20169;-75
2024/01/15 00:55:28;;;;;;;33.60;20.58;;;102.60;2227.20;;;;;;5088704;28;20153;-74
2024/01/15 00:57:54;;;;;;;18.40;11.63;;;77.60;2227.20;;;;;;5090247;28;20043;-75
2024/01/15 01:00:20;;;;;;;25.65;14.13;;;77.30;2227.20;;;;;;5088423;28;20024;-73
2024/01/15 01:02:45;;;;;;;180.30;98.70;;;77.20;2227.20;;;;;;5089736;28;20047;-74
2024/01/15 01:05:11;;;;;;;233.63;127.00;;;77.20;2227.20;;;;;;5089580;28;20047;-74
2024/01/15 01:07:37;;;;;;;170.52;96.70;;;77.20;2227.20;;;;;;5090025;28;20020;-74
2024/01/15 01:10:03;;;;;;;94.15;57.03;;;77.20;2227.20;;;;;;5089874;28;20470;-74
2024/01/15 01:12:29;;;;;;;44.35;27.50;;;77.00;2227.20;;;;;;5080876;28;20019;-73
2024/01/15 01:14:56;;;;;;;73.22;41.13;;;77.00;2227.20;;;;;;5088046;28;20157;-75
2024/01/15 01:17:22;;;;;;;57.85;34.72;;;77.00;2227.20;;;;;;5083894;28;20017;-75
2024/01/15 01:19:49;;;;;;;35.55;21.55;;;77.00;2227.20;;;;;;5089399;28;20382;-75
2024/01/15 01:22:15;;;;;;;26.45;18.20;;;77.00;2227.20;;;;;;5089761;28;20488;-74
2024/01/15 01:24:40;;;;;;;23.48;14.02;;;77.10;2227.20;;;;;;5088859;28;20036;-75
2024/01/15 01:27:07;;;;;;;22.48;15.50;;;77.00;2227.20;;;;;;5089699;28;20028;-73
2024/01/15 01:29:32;;;;;;;73.65;40.78;;;76.90;2227.20;;;;;;5089595;28;20036;-75
2024/01/15 01:31:58;;;;;;;223.52;127.28;;;77.10;2227.20;;;;;;5089154;28;20097;-74
2024/01/15 01:34:24;;;;;;;298.33;173.35;;;51.90;2227.20;;;;;;5089499;28;20036;-74
2024/01/15 01:36:50;;;;;;;272.08;151.10;;;51.60;2227.20;;;;;;5089105;28;20028;-73
2024/01/15 01:39:16;;;;;;;146.82;88.80;;;51.50;2227.20;;;;;;5087894;28;20113;-75
2024/01/15 01:41:41;;;;;;;132.43;73.97;;;51.40;2227.20;;;;;;5089391;28;20031;-74
2024/01/15 01:44:07;;;;;;;117.55;69.55;;;51.70;2227.20;;;;;;5089269;28;20036;-75
2024/01/15 01:46:39;;;;;;;55.10;32.22;;;51.90;2227.20;;;;;;5089374;28;20031;-72
2024/01/15 01:49:06;;;;;;;43.78;26.73;;;51.80;2227.20;;;;;;5087890;28;20093;-73
2024/01/15 01:51:33;;;;;;;38.72;21.42;;;51.70;2227.20;;;;;;5089217;28;20016;-73
2024/01/15 01:53:59;;;;;;;32.83;20.80;;;51.80;2227.20;;;;;;5089161;28;20062;-73
2024/01/15 01:56:25;;;;;;;27.88;18.40;;;51.90;2227.20;;;;;;5088484;28;20047;-73
2024/01/15 01:58:51;;;;;;;16.02;12.15;;;52.00;2227.20;;;;;;5080753;28;20052;-74
2024/01/15 02:01:18;;;;;;;13.38;8.63;;;76.90;2227.20;;;;;;5073640;28;20624;-75
2024/01/15 02:03:44;;;;;;;24.05;14.18;;;76.90;2227.20;;;;;;5067218;28;20524;-74
2024/01/15 02:06:09;;;;;;;56.22;32.72;;;76.90;2227.20;;;;;;5082836;28;20024;-75
2024/01/15 02:08:36;;;;;;;152.93;80.82;;;76.80;2227.20;;;;;;5088977;28;20024;-74
2024/01/15 02:11:02;;;;;;;69.93;41.25;;;52.00;2227.20;;;;;;5089059;28;20024;-74
2024/01/15 02:13:27;;;;;;;48.25;28.77;;;51.90;2227.20;;;;;;5088776;28;20024;-74
2024/01/15 02:15:53;;;;;;;69.43;39.35;;;51.90;2227.20;;;;;;5089078;28;20024;-73
2024/01/15 02:18:20;;;;;;;60.42;34.13;;;51.80;2227.20;;;;;;5081035;28;20021;-74
2024/01/15 02:20:45;;;;;;;81.43;45.33;;;51.80;2227.20;;;;;;5068766;28;20017;-74
2024/01/15 02:23:13;;;;;;;141.38;84.53;;;51.90;2227.20;;;;;;5068942;28;20029;-75
2024/01/15 02:25:44;;;;;;;244.13;142.82;;;51.50;2227.20;;;;;;5083463;28;20024;-75
2024/01/15 02:28:13;;;;;;;224.23;132.27;;;26.20;2201.60;;;;;;5089038;28;20028;-75
2024/01/15 02:30:41;;;;;;;213.63;130.35;;;26.20;2201.60;;;;;;5070277;28;20017;-74
2024/01/15 02:33:07;;;;;;;255.27;154.30;;;26.20;2201.60;;;;;;5068480;28;20032;-74
2024/01/15 02:35:36;;;;;;;207.70;125.90;;;26.30;2201.60;;;;;;5068718;28;20025;-74
2024/01/15 02:38:02;;;;;;;181.65;116.00;;;26.20;2201.60;;;;;;5085739;28;20024;-74
2024/01/15 02:40:28;;;;;;;194.98;115.35;;;26.20;2201.60;;;;;;5086751;28;20062;-74
2024/01/15 02:42:54;;;;;;;163.60;97.25;;;26.20;2201.60;;;;;;5086033;28;20032;-74
2024/01/15 02:45:20;;;;;;;123.38;70.95;;;26.30;2201.60;;;;;;5073206;28;20028;-74
2024/01/15 02:47:46;;;;;;;76.90;44.42;;;26.40;2201.60;;;;;;5084084;28;20101;-74
2024/01/15 02:50:12;;;;;;;56.13;30.13;;;26.30;2201.60;;;;;;5092667;28;20478;-73
2024/01/15 02:52:38;;;;;;;51.65;30.90;;;26.40;2201.60;;;;;;5091807;28;20071;-74
2024/01/15 02:55:04;;;;;;;52.30;30.10;;;26.50;2201.60;;;;;;5092682;28;20024;-74
2024/01/15 02:57:30;;;;;;;40.88;23.75;;;51.30;2227.20;;;;;;5079712;28;20029;-74
2024/01/15 02:59:56;;;;;;;49.97;27.95;;;51.50;2227.20;;;;;;5072214;28;20095;-75
2024/01/15 03:02:21;;;;;;;58.63;32.65;;;51.50;2227.20;;;;;;5072124;28;20083;-75
2024/01/15 03:04:47;;;;;;;45.95;26.40;;;51.50;2227.20;;;;;;5091987;28;20036;-74
2024/01/15 03:07:13;;;;;;;46.03;30.35;;;51.60;2227.20;;;;;;5092556;28;20017;-74
2024/01/15 03:09:39;;;;;;;25.27;13.65;;;51.70;2227.20;;;;;;5092411;28;20366;-74
2024/01/15 03:12:05;;;;;;;27.25;16.92;;;51.70;2227.20;;;;;;5079334;28;20043;-74
2024/01/15 03:14:31;;;;;;;37.80;23.98;;;51.60;2227.20;;;;;;5092136;28;20016;-74
2024/01/15 03:16:56;;;;;;;19.17;12.68;;;51.50;2227.20;;;;;;5090825;28;20028;-75
2024/01/15 03:19:22;;;;;;;27.48;15.43;;;51.60;2227.20;;;;;;5071913;28;20032;-74
2024/01/15 03:21:48;;;;;;;32.67;18.83;;;51.50;2227.20;;;;;;5085390;28;20533;-75
2024/01/15 03:24:14;;;;;;;35.25;19.70;;;51.90;2227.20;;;;;;5092205;28;20500;-74
2024/01/15 03:26:39;;;;;;;78.95;46.72;;;51.90;2227.20;;;;;;5090631;28;20032;-75
2024/01/15 03:29:06;;;;;;;53.92;33.35;;;51.30;2227.20;;;;;;5086111;28;20040;-75
2024/01/15 03:31:31;;;;;;;68.43;39.80;;;26.50;2201.60;;;;;;5084205;28;20122;-74
2024/01/15 03:33:57;;;;;;;67.00;41.22;;;51.30;2227.20;;;;;;5091264;28;20115;-74
2024/01/15 03:36:23;;;;;;;88.13;47.17;;;51.30;2227.20;;;;;;5092232;28;20024;-74
2024/01/15 03:38:49;;;;;;;73.45;38.42;;;51.20;2227.20;;;;;;5086216;28;20032;-74
2024/01/15 03:41:14;;;;;;;67.65;38.33;;;26.40;2201.60;;;;;;5071722;28;20481;-74
2024/01/15 03:43:40;;;;;;;85.78;45.20;;;26.50;2201.60;;;;;;5090527;28;20035;-75
2024/01/15 03:46:06;;;;;;;129.32;66.93;;;26.50;2201.60;;;;;;5079201;28;20031;-74
2024/01/15 03:48:32;;;;;;;88.32;49.60;;;26.50;2201.60;;;;;;5070656;28;20032;-74
2024/01/15 03:50:58;;;;;;;56.30;30.98;;;26.50;2201.60;;;;;;5071699;28;20339;-74
2024/01/15 03:53:24;;;;;;;27.67;16.52;;;26.50;2201.60;;;;;;5090402;28;20024;-74
2024/01/15 03:55:50;;;;;;;39.53;21.02;;;51.30;2227.20;;;;;;5091423;28;20024;-75
2024/01/15 03:58:16;;;;;;;32.92;16.67;;;51.50;2227.20;;;;;;5091444;28;20100;-74
2024/01/15 04:00:42;;;;;;;58.85;34.88;;;51.70;2227.20;;;;;;5079175;28;20024;-73
2024/01/15 04:03:08;;;;;;;106.32;64.28;;;51.50;2227.20;;;;;;5076083;28;20055;-75
2024/01/15 04:05:34;;;;;;;124.28;68.75;;;51.30;2227.20;;;;;;5078886;28;20036;-74
2024/01/15 04:08:00;;;;;;;144.32;79.90;;;26.40;2201.60;;;;;;5089977;28;20031;-74
2024/01/15 04:10:26;;;;;;;208.23;110.22;;;26.50;2201.60;;;;;;5091090;28;20032;-75
2024/01/15 04:12:52;;;;;;;178.77;100.28;;;26.50;2201.60;;;;;;5085899;28;20028;-74
2024/01/15 04:15:18;;;;;;;132.38;76.68;;;51.20;2227.20;;;;;;5070731;28;20028;-75
2024/01/15 04:17:43;;;;;;;143.80;73.55;;;51.30;2227.20;;;;;;5076937;28;20020;-74
2024/01/15 04:20:10;;;;;;;217.02;135.48;;;26.50;2201.60;;;;;;5090893;28;20566;-74
2024/01/15 04:22:36;;;;;;;97.93;54.05;;;51.20;2227.20;;;;;;5084538;28;20021;-74
2024/01/15 04:25:02;;;;;;;35.30;18.38;;;51.60;2227.20;;;;;;5070712;28;20454;-73
2024/01/15 04:27:28;;;;;;;78.80;44.50;;;52.00;2227.20;;;;;;5070464;28;20090;-73
2024/01/15 04:29:54;;;;;;;118.30;66.95;;;76.90;2227.20;;;;;;5082934;28;20374;-72
2024/01/15 04:32:19;;;;;;;94.82;54.88;;;76.90;2227.20;;;;;;5076970;28;20044;-73
2024/01/15 04:34:46;;;;;;;93.75;55.88;;;76.80;2227.20;;;;;;5078683;28;20072;-73
2024/01/15 04:37:13;;;;;;;59.85;33.40;;;52.10;2227.20;;;;;;5075608;28;20027;-73
2024/01/15 04:39:38;;;;;;;43.97;27.10;;;52.10;2227.20;;;;;;5090437;28;20115;-72
2024/01/15 04:42:04;;;;;;;58.20;33.50;;;76.80;2227.20;;;;;;5090724;28;20031;-73
2024/01/15 04:44:30;;;;;;;48.63;29.38;;;77.00;2227.20;;;;;;5090556;28;20500;-73
2024/01/15 04:46:56;;;;;;;45.85;28.33;;;77.10;2227.20;;;;;;5090257;28;20059;-73
2024/01/15 04:49:22;;;;;;;40.70;22.70;;;77.00;2227.20;;;;;;5090457;28;20039;-73
2024/01/15 04:51:47;;;;;;;53.95;35.25;;;76.80;2227.20;;;;;;5071598;28;20016;-73
2024/01/15 04:54:17;;;;;;;209.35;117.55;;;76.90;2227.20;;;;;;5082230;28;20024;-73
2024/01/15 04:56:44;;;;;;;159.02;87.00;;;77.00;2227.20;;;;;;5090468;28;20020;-73
2024/01/15 04:59:10;;;;;;;85.32;48.80;;;77.20;2227.20;;;;;;5088936;28;20073;-73
2024/01/15 05:01:36;;;;;;;39.83;23.45;;;77.10;2227.20;;;;;;5082533;28;20033;-73
2024/01/15 05:04:02;;;;;;;33.97;19.65;;;77.20;2227.20;;;;;;5082347;28;20279;-73
2024/01/15 05:06:28;;;;;;;21.80;12.65;;;77.10;2227.20;;;;;;5089878;28;20020;-73
2024/01/15 05:08:54;;;;;;;92.45;57.65;;;77.00;2227.20;;;;;;5077434;28;20489;-73
2024/01/15 05:11:20;;;;;;;23.98;14.80;;;77.10;2227.20;;;;;;5069880;28;20021;-73
2024/01/15 05:13:45;;;;;;;22.23;17.77;;;76.90;2227.20;;;;;;5082607;28;20427;-75
2024/01/15 05:16:11;;;;;;;13.38;9.35;;;76.90;2227.20;;;;;;5090015;28;20099;-75
2024/01/15 05:18:37;;;;;;;19.40;10.70;;;77.20;2227.20;;;;;;5089619;28;20164;-74
2024/01/15 05:21:03;;;;;;;63.45;31.40;;;77.30;2227.20;;;;;;5089764;28;20070;-72
2024/01/15 05:23:31;;;;;;;27.88;16.73;;;77.50;2227.20;;;;;;5076657;28;20554;-73
2024/01/15 05:25:57;;;;;;;50.55;24.35;;;77.70;2227.20;;;;;;5075725;28;20386;-73
2024/01/15 05:28:23;;;;;;;72.88;44.15;;;77.70;2227.20;;;;;;5090111;28;20085;-73
2024/01/15 05:30:50;;;;;;;125.55;71.95;;;77.70;2227.20;;;;;;5089322;28;20024;-73
2024/01/15 05:33:16;;;;;;;104.55;48.85;;;77.50;2227.20;;;;;;5089302;28;20111;-74
2024/01/15 05:35:42;;;;;;;92.43;56.75;;;77.70;2227.20;;;;;;5074491;28;20565;-74
2024/01/15 05:38:08;;;;;;;153.80;95.80;;;77.70;2227.20;;;;;;5089527;28;20027;-74
2024/01/15 05:40:34;;;;;;;162.32;91.85;;;77.70;2227.20;;;;;;5075871;28;20048;-73
2024/01/15 05:43:00;;;;;;;106.38;63.53;;;77.50;2227.20;;;;;;5080449;28;20056;-74
2024/01/15 05:45:27;;;;;;;111.45;65.00;;;102.40;2227.20;;;;;;5081511;28;20051;-73
2024/01/15 05:47:52;;;;;;;63.85;40.38;;;77.70;2227.20;;;;;;5077792;28;20021;-74
2024/01/15 05:50:18;;;;;;;66.72;39.60;;;77.70;2227.20;;;;;;5089094;28;20064;-73
2024/01/15 05:52:44;;;;;;;90.10;54.50;;;102.40;2227.20;;;;;;5089360;28;20058;-74
2024/01/15 05:55:10;;;;;;;100.50;59.30;;;77.60;2227.20;;;;;;5086415;28;20078;-73
2024/01/15 05:57:36;;;;;;;99.15;61.28;;;77.60;2227.20;;;;;;5089123;28;20016;-73
2024/01/15 06:00:03;;;;;;;95.95;58.63;;;77.50;2227.20;;;;;;5089298;28;20061;-73
2024/01/15 06:02:29;;;;;;;77.70;49.28;;;77.30;2227.20;;;;;;5087454;28;20386;-74
2024/01/15 06:04:56;;;;;;;102.88;73.07;;;77.40;2227.20;;;;;;5078298;28;20104;-75
2024/01/15 06:07:23;;;;;;;133.30;73.50;;;77.20;2227.20;;;;;;5079123;28;20028;-75
2024/01/15 06:09:49;;;;;;;111.68;67.82;;;77.30;2227.20;;;;;;5072297;28;20099;-74
2024/01/15 06:12:15;;;;;;;136.57;81.72;;;77.20;2227.20;;;;;;5078527;28;20170;-73
2024/01/15 06:14:42;;;;;;;78.25;47.78;;;77.20;2227.20;;;;;;5082463;28;20025;-75
2024/01/15 06:17:08;;;;;;;98.40;58.70;;;77.30;2227.20;;;;;;5078921;28;20023;-76
2024/01/15 06:19:34;;;;;;;87.05;54.17;;;77.40;2227.20;;;;;;5089174;28;20020;-74
2024/01/15 06:21:59;;;;;;;82.22;50.08;;;77.40;2227.20;;;;;;5088970;28;20024;-75
2024/01/15 06:24:25;;;;;;;96.45;58.20;;;77.40;2227.20;;;;;;5084797;28;20028;-76
2024/01/15 06:26:51;;;;;;;131.10;81.63;;;77.40;2227.20;;;;;;5068939;28;20063;-75
2024/01/15 06:29:17;;;;;;;138.82;83.28;;;77.40;2227.20;;;;;;5075962;28;20028;-75
2024/01/15 06:31:42;;;;;;;120.20;71.03;;;77.40;2227.20;;;;;;5088716;28;20103;-75
2024/01/15 06:34:08;;;;;;;131.63;74.95;;;77.60;2227.20;;;;;;5089000;28;20040;-74
2024/01/15 06:36:34;;;;;;;120.70;71.00;;;77.70;2227.20;;;;;;5088576;28;20532;-74
2024/01/15 06:39:00;;;;;;;95.63;61.08;;;77.70;2227.20;;;;;;5088757;28;20028;-74
2024/01/15 06:41:25;;;;;;;464.17;293.20;;;102.60;2227.20;;;;;;5073181;28;20036;-75
2024/01/15 06:43:51;;;;;;;226.60;137.05;;;102.60;2227.20;;;;;;5068636;28;20387;-74
2024/01/15 06:46:21;;;;;;;235.40;148.88;;;102.60;2227.20;;;;;;5068488;28;20386;-74
2024/01/15 06:48:47;;;;;;;205.43;126.32;;;102.60;2227.20;;;;;;5066931;28;20060;-74
2024/01/15 06:51:13;;;;;;;174.20;112.45;;;102.80;2227.20;;;;;;5068695;28;20052;-74
2024/01/15 06:53:38;;;;;;;157.52;96.38;;;102.80;2227.20;;;;;;5067380;28;20032;-75
2024/01/15 06:56:04;;;;;;;151.88;84.13;;;102.90;2227.20;;;;;;5083464;28;20077;-74
2024/01/15 06:58:33;;;;;;;128.82;70.22;;;103.10;2227.20;;;;;;5079128;28;20091;-75
2024/01/15 07:00:59;;;;;;;127.53;71.32;;;128.10;2252.80;;;;;;5069184;28;20072;-75
2024/01/15 07:03:25;;;;;;;406.85;261.77;;;128.40;2252.80;;;;;;5075115;28;20067;-75
2024/01/15 07:05:51;;;;;;;418.13;255.05;;;103.10;2227.20;;;;;;5088612;28;20028;-74
2024/01/15 07:08:17;;;;;;;325.30;203.32;;;102.80;2227.20;;;;;;5074995;28;20020;-74
2024/01/15 07:10:42;;;;;;;166.77;102.75;;;103.10;2227.20;;;;;;5088204;28;20024;-76
2024/01/15 07:13:09;;;;;;;245.05;155.60;;;103.10;2227.20;;;;;;5084012;28;20013;-76
2024/01/15 07:15:34;;;;;;;172.27;107.35;;;103.30;2227.20;;;;;;5078575;28;20065;-75
2024/01/15 07:18:00;;;;;;;209.73;125.30;;;128.10;2252.80;;;;;;5086982;28;20439;-75
2024/01/15 07:20:26;;;;;;;502.25;304.45;;;128.10;2252.80;;;;;;5088328;28;20026;-75
2024/01/15 07:22:52;;;;;;;430.55;260.52;;;128.00;2252.80;;;;;;5075258;28;20095;-75
2024/01/15 07:25:17;;;;;;;345.50;211.32;;;128.20;2252.80;;;;;;5080868;28;20090;-75
2024/01/15 07:27:44;;;;;;;283.58;175.70;;;128.30;2252.80;;;;;;5079668;28;20432;-75
2024/01/15 07:30:11;;;;;;;189.25;121.97;;;128.60;2252.80;;;;;;5091797;28;20030;-75
2024/01/15 07:32:37;;;;;;;200.02;137.27;;;128.90;2252.80;;;;;;5091633;28;20020;-75
2024/01/15 07:35:04;;;;;;;184.57;130.32;;;153.70;2252.80;;;;;;5079264;28;20391;-80
2024/01/15 07:37:30;;;;;;;82.40;53.53;;;154.00;2252.80;;;;;;5076882;28;20029;-80
2024/01/15 07:39:55;;;;;;;87.28;56.13;;;179.20;2252.80;;;;;;5091987;28;20426;-80
2024/01/15 07:42:21;;;;;;;79.82;57.25;;;179.60;2252.80;;;;;;5091904;28;20035;-79
2024/01/15 07:44:47;;;;;;;82.00;53.10;;;179.90;2252.80;;;;;;5090386;28;20032;-78
2024/01/15 07:47:13;;;;;;;271.58;183.85;;;204.80;2252.80;;;;;;5087966;28;20032;-81
2024/01/15 07:49:39;;;;;;;248.65;165.80;;;179.80;2252.80;;;;;;5088470;28;20051;-81
2024/01/15 07:52:05;;;;;;;284.13;161.07;;;179.20;2252.80;;;;;;5084188;28;20559;-80
2024/01/15 07:54:31;;;;;;;411.25;280.73;;;179.60;2252.80;;;;;;5083009;28;20389;-81
2024/01/15 07:57:04;;;;;;;349.88;226.93;;;179.80;2252.80;;;;;;5090090;28;20065;-81
2024/01/15 07:59:31;;;;;;;322.95;206.35;;;179.80;2252.80;;;;;;5090398;28;20028;-79
2024/01/15 08:01:58;;;;;;;297.10;185.50;;;179.70;2252.80;;;;;;5090087;28;20032;-80
2024/01/15 08:04:24;;;;;;;432.95;273.98;;;179.60;2252.80;;;;;;5078892;28;20036;-80
2024/01/15 08:06:49;;;;;;;336.40;226.40;;;179.30;2252.80;;;;;;5077215;28;20370;-79
2024/01/15 08:09:15;;;;;;;232.65;149.88;;;179.20;2252.80;;;;;;5091382;28;20077;-80
2024/01/15 08:11:41;;;;;;;194.25;134.20;;;154.50;2252.80;;;;;;5090359;28;20370;-80
2024/01/15 08:14:08;;;;;;;371.65;265.40;;;179.40;2252.80;;;;;;5089918;28;20032;-81
2024/01/15 08:16:34;;;;;;;225.00;161.13;;;179.50;2252.80;;;;;;5077775;28;20032;-79
2024/01/15 08:18:59;;;;;;;329.58;227.65;;;179.80;2252.80;;;;;;5090917;28;20025;-79
2024/01/15 08:21:27;;;;;;;352.42;248.30;;;179.80;2252.80;;;;;;5084531;28;20016;-78
2024/01/15 08:23:52;;;;;;;268.17;191.93;;;179.90;2252.80;;;;;;5084339;28;20056;-77
2024/01/15 08:26:18;;;;;;;199.65;144.63;;;180.10;2252.80;;;;;;5090952;28;20410;-78
2024/01/15 08:28:44;;;;;;;295.30;215.00;;;179.70;2252.80;;;;;;5089870;28;20375;-77
2024/01/15 08:31:10;;;;;;;344.95;231.05;;;179.70;2252.80;;;;;;5081461;28;20024;-78
2024/01/15 08:33:36;;;;;;;282.02;188.07;;;179.60;2252.80;;;;;;5086072;28;20020;-78
2024/01/15 08:36:02;;;;;;;198.65;126.13;;;179.60;2252.80;;;;;;5080210;28;20040;-76
2024/01/15 08:38:28;;;;;;;206.20;133.57;;;179.50;2252.80;;;;;;5085227;28;20074;-76
2024/01/15 08:40:56;;;;;;;188.75;129.45;;;179.70;2252.80;;;;;;5081567;28;20056;-77
2024/01/15 08:43:22;;;;;;;171.60;119.22;;;179.80;2252.80;;;;;;5084645;28;20110;-75
2024/01/15 08:45:48;;;;;;;176.45;123.57;;;179.90;2252.80;;;;;;5069043;28;20175;-77
2024/01/15 08:48:14;;;;;;;189.75;132.18;;;180.10;2252.80;;;;;;5071899;28;20397;-77
2024/01/15 08:50:39;;;;;;;123.53;85.53;;;179.90;2252.80;;;;;;5090305;28;20024;-77
2024/01/15 08:53:05;;;;;;;112.78;80.45;;;179.90;2252.80;;;;;;5074167;28;20781;-77
2024/01/15 08:55:31;;;;;;;91.82;67.35;;;179.80;2252.80;;;;;;5070343;28;20031;-75
2024/01/15 08:57:57;;;;;;;118.72;75.78;;;179.80;2252.80;;;;;;5085845;28;20021;-76
2024/01/15 09:00:22;;;;;;;116.82;84.47;;;180.10;2252.80;;;;;;5070647;28;20112;-77
2024/01/15 09:02:48;;;;;;;168.80;112.88;;;205.10;2252.80;;;;;;5068443;28;21130;-77
2024/01/15 09:05:14;;;;;;;360.73;249.15;;;205.30;2252.80;;;;;;5079025;28;20127;-78
2024/01/15 09:07:40;;;;;;;223.88;158.45;;;180.00;2252.80;;;;;;5075198;28;20095;-78
2024/01/15 09:10:06;;;;;;;437.10;270.80;;;205.00;2252.80;;;;;;5090138;28;20421;-76
2024/01/15 09:12:32;;;;;;;496.90;305.05;;;205.20;2252.80;;;;;;5088032;28;20073;-78
2024/01/15 09:14:58;;;;;;;250.27;166.70;;;205.50;2252.80;;;;;;5079784;28;20024;-77
2024/01/15 09:17:23;;;;;;;563.65;425.55;;;205.30;2252.80;;;;;;5085771;28;20418;-76
2024/01/15 09:19:49;;;;;;;498.25;367.05;;;204.80;2252.80;;;;;;5090083;28;20444;-77
2024/01/15 09:22:18;;;;;;;484.92;359.15;;;205.30;2252.80;;;;;;5073544;28;20052;-77
2024/01/15 09:24:47;;;;;;;525.15;410.65;;;205.30;2252.80;;;;;;5079752;28;20405;-77
2024/01/15 09:27:13;;;;;;;520.13;398.90;;;205.20;2252.80;;;;;;5086402;28;20020;-78
2024/01/15 09:29:41;;;;;;;460.70;332.35;;;205.30;2252.80;;;;;;5079632;28;20051;-77
2024/01/15 09:32:07;;;;;;;425.85;303.33;;;205.40;2252.80;;;;;;5089639;28;20023;-77
2024/01/15 09:34:36;;;;;;;155.27;112.90;;;205.30;2252.80;;;;;;5078902;28;20033;-78
2024/01/15 09:37:02;;;;;;;84.80;60.08;;;205.40;2252.80;;;;;;5082884;28;20024;-76
2024/01/15 09:39:28;;;;;;;84.80;61.17;;;205.50;2252.80;;;;;;5069311;28;20534;-78
2024/01/15 09:41:54;;;;;;;98.25;68.28;;;205.50;2252.80;;;;;;5068694;28;20162;-78
2024/01/15 09:44:21;;;;;;;136.20;92.75;;;205.50;2252.80;;;;;;5079156;28;20382;-76
2024/01/15 09:46:50;;;;;;;96.85;65.28;;;205.60;2252.80;;;;;;5084021;28;20021;-76
2024/01/15 09:49:16;;;;;;;218.77;152.52;;;205.40;2252.80;;;;;;5079021;28;20036;-79
2024/01/15 09:51:42;;;;;;;183.73;132.00;;;205.20;2252.80;;;;;;5080904;28;20028;-76
2024/01/15 09:54:09;;;;;;;167.48;116.63;;;205.20;2252.80;;;;;;5088418;28;20497;-77
2024/01/15 09:56:35;;;;;;;134.00;94.05;;;205.10;2252.80;;;;;;5074267;28;20440;-77
2024/01/15 09:59:01;;;;;;;151.43;107.60;;;205.20;2252.80;;;;;;5078254;28;20035;-77
2024/01/15 10:01:28;;;;;;;209.48;140.68;;;205.10;2252.80;;;;;;5069165;28;20062;-77
2024/01/15 10:03:55;;;;;;;202.63;131.95;;;205.30;2252.80;;;;;;5071942;28;20462;-79
2024/01/15 10:06:22;;;;;;;499.98;371.17;;;205.10;2252.80;;;;;;5073406;28;20462;-78
2024/01/15 10:08:50;;;;;;;460.92;296.45;;;204.80;2252.80;;;;;;5075663;28;20079;-78
2024/01/15 10:11:16;;;;;;;175.02;120.55;;;205.00;2252.80;;;;;;5067792;28;20336;-76
2024/01/15 10:13:43;;;;;;;352.73;246.20;;;205.10;2252.80;;;;;;5082503;28;20082;-79
2024/01/15 10:16:09;;;;;;;332.92;233.93;;;204.90;2252.80;;;;;;5074451;28;20028;-77
2024/01/15 10:18:36;;;;;;;410.48;288.60;;;179.80;2252.80;;;;;;5080248;28;20029;-78
2024/01/15 10:21:03;;;;;;;377.77;269.17;;;179.70;2252.80;;;;;;5087310;28;20028;-80
2024/01/15 10:23:31;;;;;;;442.55;324.02;;;180.00;2252.80;;;;;;5081018;28;20024;-80
2024/01/15 10:25:58;;;;;;;222.82;163.85;;;180.00;2252.80;;;;;;5075469;28;20039;-78
2024/01/15 10:28:26;;;;;;;253.63;183.35;;;180.10;2252.80;;;;;;5088941;28;20017;-74
2024/01/15 10:30:56;;;;;;;207.40;136.10;;;179.80;2252.80;;;;;;5083603;28;20040;-76
2024/01/15 10:33:28;;;;;;;194.88;137.90;;;179.80;2252.80;;;;;;5068947;28;20077;-78
2024/01/15 10:35:59;;;;;;;250.02;173.23;;;179.80;2252.80;;;;;;5067689;28;20494;-77
2024/01/15 10:38:25;;;;;;;141.40;99.03;;;179.80;2252.80;;;;;;5070098;28;20025;-78
2024/01/15 10:40:55;;;;;;;131.55;94.18;;;180.00;2252.80;;;;;;5074351;28;20432;-78
2024/01/15 10:43:22;;;;;;;161.63;96.95;;;179.90;2252.80;;;;;;5072511;28;20035;-75
2024/01/15 10:45:49;;;;;;;193.38;117.55;;;179.90;2252.80;;;;;;5085245;28;20561;-75
2024/01/15 10:48:18;;;;;;;140.80;89.70;;;180.00;2252.80;;;;;;5080327;28;20153;-79
2024/01/15 10:50:47;;;;;;;186.07;134.55;;;180.00;2252.80;;;;;;5081154;28;20494;-75
2024/01/15 10:53:15;;;;;;;167.50;113.18;;;180.10;2252.80;;;;;;5088658;28;20028;-81
2024/01/15 10:55:42;;;;;;;90.50;62.83;;;204.80;2252.80;;;;;;5080730;28;20024;-77
2024/01/15 10:58:09;;;;;;;215.18;144.45;;;204.90;2252.80;;;;;;5084047;28;20368;-81
2024/01/15 11:00:38;;;;;;;146.13;100.97;;;180.10;2252.80;;;;;;5092779;28;20024;-82
2024/01/15 11:03:06;;;;;;;142.65;95.50;;;204.90;2252.80;;;;;;5092054;28;20044;-80
2024/01/15 11:05:41;;;;;;;113.80;79.78;;;205.00;2252.80;;;;;;5091745;28;20502;-77
2024/01/15 11:08:07;;;;;;;162.07;110.10;;;205.10;2252.80;;;;;;5088036;28;20027;-80
2024/01/15 11:10:49;;;;;;;201.98;144.35;;;205.30;2252.80;;;;;;5083556;28;20032;-80
2024/01/15 11:13:22;;;;;;;245.15;170.48;;;205.20;2252.80;;;;;;5085848;28;20374;-81
2024/01/15 11:15:58;;;;;;;365.08;236.80;;;205.20;2252.80;;;;;;5072164;28;20024;-80
2024/01/15 11:18:26;;;;;;;306.23;186.93;;;205.10;2252.80;;;;;;5081657;28;20030;-80
2024/01/15 11:21:16;;;;;;;272.00;174.88;;;205.10;2252.80;;;;;;5085764;28;20132;-78
2024/01/15 11:23:46;;;;;;;235.00;150.23;;;205.10;2252.80;;;;;;5091978;28;20055;-81
2024/01/15 11:26:38;;;;;;;277.73;190.88;;;205.20;2252.80;;;;;;5078205;28;20039;-75
2024/01/15 11:29:09;;;;;;;432.38;274.05;;;205.20;2252.80;;;;;;5075529;28;20017;-82
2024/01/15 11:31:40;;;;;;;373.20;255.30;;;205.20;2252.80;;;;;;5072104;28;20158;-81
2024/01/15 11:34:07;;;;;;;319.17;221.90;;;205.10;2252.80;;;;;;5073005;28;20513;-81
2024/01/15 11:36:45;;;;;;;354.75;251.15;;;205.00;2252.80;;;;;;5072506;28;20077;-82
2024/01/15 11:39:30;;;;;;;249.90;173.90;;;205.00;2252.80;;;;;;5073161;28;20028;-77
2024/01/15 11:42:01;;;;;;;262.67;182.77;;;205.00;2252.80;;;;;;5086319;28;20111;-76
2024/01/15 11:44:27;;;;;;;291.63;222.13;;;205.00;2252.80;;;;;;5072091;28;20029;-81
2024/01/15 11:47:04;;;;;;;297.63;208.52;;;205.00;2252.80;;;;;;5089128;28;20454;-80
2024/01/15 11:49:53;;;;;;;327.38;227.75;;;205.10;2252.80;;;;;;5091662;28;20039;-79
2024/01/15 11:52:23;;;;;;;355.00;255.68;;;205.00;2252.80;;;;;;5080288;28;20476;-81
2024/01/15 11:55:00;;;;;;;374.23;273.05;;;204.80;2252.80;;;;;;5091156;28;20036;-78